createdAt,value
2017-09-16T00:02:16.291Z,1011.781
2017-09-16T00:05:10.135Z,1011.777
2017-09-16T00:08:49.797Z,1011.814
2017-09-16T00:11:35.900Z,1011.839
2017-09-16T00:22:58.926Z,1011.835
2017-09-16T00:25:42.616Z,1011.813
2017-09-16T00:28:36.390Z,1011.775
2017-09-16T00:31:30.695Z,1011.740
2017-09-16T00:34:25.389Z,1011.692
2017-09-16T00:48:09.545Z,1011.704
2017-09-16T00:51:03.470Z,1011.678
2017-09-16T00:53:57.865Z,1011.618
2017-09-16T01:04:47.125Z,1011.606
2017-09-16T01:07:30.716Z,1011.598
2017-09-16T01:10:24.554Z,1011.601
2017-09-16T01:13:19.030Z,1011.594
2017-09-16T01:26:23.956Z,1011.544
2017-09-16T01:29:07.431Z,1011.591
2017-09-16T01:32:01.217Z,1011.581
2017-09-16T01:34:55.467Z,1011.565
2017-09-16T01:47:03.832Z,1011.569
2017-09-16T01:49:47.524Z,1011.583
2017-09-16T01:52:41.372Z,1011.659
2017-09-16T01:55:36.099Z,1011.662
2017-09-16T02:10:23.091Z,1011.628
2017-09-16T02:13:06.618Z,1011.595
2017-09-16T02:16:00.406Z,1011.570
2017-09-16T02:18:54.859Z,1011.526
2017-09-16T02:21:49.419Z,1011.536
2017-09-16T02:35:05.685Z,1011.584
2017-09-16T02:37:49.239Z,1011.568
2017-09-16T02:40:43.090Z,1011.553
2017-09-16T02:43:37.453Z,1011.511
2017-09-16T02:53:30.230Z,1011.586
2017-09-16T02:56:13.828Z,1011.589
2017-09-16T02:59:07.736Z,1011.545
2017-09-16T03:02:02.086Z,1011.527
2017-09-16T03:13:36.520Z,1011.592
2017-09-16T03:16:20.098Z,1011.627
2017-09-16T03:19:14.029Z,1011.615
2017-09-16T03:22:08.339Z,1011.606
2017-09-16T03:28:37.625Z,1011.564
2017-09-16T03:31:21.550Z,1011.572
2017-09-16T03:39:32.052Z,1011.627
2017-09-16T03:42:15.751Z,1011.589
2017-09-16T03:45:09.586Z,1011.511
2017-09-16T03:48:04.026Z,1011.515
2017-09-16T04:00:01.049Z,1011.608
2017-09-16T04:02:44.507Z,1011.623
2017-09-16T04:05:38.294Z,1011.606
2017-09-16T04:08:32.776Z,1011.592
2017-09-16T04:18:48.005Z,1011.730
2017-09-16T04:21:31.578Z,1011.729
2017-09-16T04:24:25.482Z,1011.684
2017-09-16T04:27:19.736Z,1011.679
2017-09-16T04:38:20.274Z,1011.849
2017-09-16T04:41:03.791Z,1011.868
2017-09-16T04:43:57.587Z,1011.902
2017-09-16T04:49:30.182Z,1011.869
2017-09-16T04:52:14.309Z,1011.895
2017-09-16T05:03:59.525Z,1011.867
2017-09-16T05:06:43.038Z,1011.861
2017-09-16T05:09:36.760Z,1011.883
2017-09-16T05:12:31.058Z,1011.866
2017-09-16T05:27:56.694Z,1011.864
2017-09-16T05:30:50.358Z,1011.894
2017-09-16T05:50:41.705Z,1011.893
2017-09-16T05:53:25.030Z,1011.861
2017-09-16T06:19:28.654Z,1011.932
2017-09-16T06:22:11.959Z,1011.936
2017-09-16T06:37:08.779Z,1012.027
2017-09-16T06:39:52.205Z,1012.053
2017-09-16T06:42:46.035Z,1012.086
2017-09-16T06:45:40.407Z,1012.127
2017-09-16T06:48:35.124Z,1012.173
2017-09-16T06:58:05.407Z,1012.237
2017-09-16T07:03:43.152Z,1012.291
2017-09-16T07:06:37.673Z,1012.358
2017-09-16T07:09:32.410Z,1012.387
2017-09-16T07:12:27.206Z,1012.414
2017-09-16T07:20:27.080Z,1012.462
2017-09-16T07:26:05.011Z,1012.469
2017-09-16T07:28:59.409Z,1012.505
2017-09-16T07:31:54.145Z,1012.547
2017-09-16T07:34:48.949Z,1012.570
2017-09-16T07:42:14.940Z,1012.524
2017-09-16T07:44:58.926Z,1012.557
2017-09-16T07:47:53.015Z,1012.571
2017-09-16T07:50:47.589Z,1012.605
2017-09-16T07:56:37.236Z,1012.647
2017-09-16T08:02:10.480Z,1012.684
2017-09-16T08:04:54.786Z,1012.735
2017-09-16T08:07:49.158Z,1012.791
2017-09-16T08:10:43.944Z,1012.841
2017-09-16T08:16:33.704Z,1012.820
2017-09-16T08:19:28.691Z,1012.919
2017-09-16T08:23:31.554Z,1012.995
2017-09-16T08:26:17.110Z,1013.009
2017-09-16T08:29:11.731Z,1012.981
2017-09-16T08:32:06.579Z,1012.991
2017-09-16T08:35:01.911Z,1012.975
2017-09-16T08:37:56.967Z,1012.937
2017-09-16T08:40:51.991Z,1012.880
2017-09-16T08:43:46.914Z,1012.824
2017-09-16T08:46:41.894Z,1012.751
2017-09-16T08:49:36.954Z,1012.765
2017-09-16T08:52:32.049Z,1012.786
2017-09-16T08:55:27.041Z,1012.811
2017-09-16T08:58:22.108Z,1012.796
2017-09-16T09:01:17.265Z,1012.802
2017-09-16T09:04:12.578Z,1012.752
2017-09-16T09:07:07.937Z,1012.704
2017-09-16T09:10:03.398Z,1012.688
2017-09-16T09:12:58.832Z,1012.677
2017-09-16T09:15:54.245Z,1012.608
2017-09-16T09:18:49.817Z,1012.565
2017-09-16T09:21:45.370Z,1012.604
2017-09-16T09:24:40.909Z,1012.620
2017-09-16T09:27:36.468Z,1012.658
2017-09-16T09:30:32.094Z,1012.694
2017-09-16T09:33:27.739Z,1012.656
2017-09-16T09:36:23.220Z,1012.615
2017-09-16T09:39:18.623Z,1012.586
2017-09-16T09:42:14.179Z,1012.589
2017-09-16T09:45:09.588Z,1012.568
2017-09-16T09:48:04.959Z,1012.583
2017-09-16T09:51:00.370Z,1012.628
2017-09-16T09:53:55.815Z,1012.693
2017-09-16T09:56:51.110Z,1012.731
2017-09-16T09:59:46.302Z,1012.677
2017-09-16T10:02:41.623Z,1012.674
2017-09-16T10:05:36.960Z,1012.677
2017-09-16T10:08:32.204Z,1012.630
2017-09-16T10:11:27.592Z,1012.658
2017-09-16T10:14:23.056Z,1012.633
2017-09-16T10:17:18.501Z,1012.631
2017-09-16T10:20:14.172Z,1012.605
2017-09-16T10:23:09.476Z,1012.597
2017-09-16T10:26:04.814Z,1012.528
2017-09-16T10:29:00.183Z,1012.499
2017-09-16T10:31:55.734Z,1012.481
2017-09-16T10:34:51.099Z,1012.448
2017-09-16T10:37:46.582Z,1012.361
2017-09-16T10:40:41.971Z,1012.335
2017-09-16T10:43:37.164Z,1012.321
2017-09-16T10:46:32.379Z,1012.341
2017-09-16T10:49:27.562Z,1012.383
2017-09-16T10:52:22.722Z,1012.412
2017-09-16T10:55:17.948Z,1012.454
2017-09-16T10:58:13.125Z,1012.469
2017-09-16T11:01:08.271Z,1012.545
2017-09-16T11:04:03.420Z,1012.511
2017-09-16T11:06:58.668Z,1012.531
2017-09-16T11:09:53.878Z,1012.525
2017-09-16T11:12:49.195Z,1012.484
2017-09-16T11:15:44.378Z,1012.463
2017-09-16T11:18:39.570Z,1012.443
2017-09-16T11:21:34.757Z,1012.492
2017-09-16T11:24:29.924Z,1012.467
2017-09-16T11:27:25.141Z,1012.453
2017-09-16T11:30:20.341Z,1012.444
2017-09-16T11:33:15.556Z,1012.483
2017-09-16T11:36:10.729Z,1012.449
2017-09-16T11:39:05.910Z,1012.444
2017-09-16T11:42:01.348Z,1012.404
2017-09-16T11:44:56.547Z,1012.371
2017-09-16T11:47:51.791Z,1012.328
2017-09-16T11:50:46.972Z,1012.331
2017-09-16T11:53:42.464Z,1012.335
2017-09-16T11:56:37.690Z,1012.353
2017-09-16T11:59:32.800Z,1012.429
2017-09-16T12:02:27.948Z,1012.371
2017-09-16T12:05:23.038Z,1012.352
2017-09-16T12:08:18.257Z,1012.314
2017-09-16T12:11:13.506Z,1012.250
2017-09-16T12:14:08.696Z,1012.221
2017-09-16T12:17:03.902Z,1012.228
2017-09-16T12:19:59.094Z,1012.215
2017-09-16T12:22:54.473Z,1012.245
2017-09-16T12:25:49.661Z,1012.271
2017-09-16T12:28:44.850Z,1012.270
2017-09-16T12:31:39.973Z,1012.270
2017-09-16T12:37:30.448Z,1012.245
2017-09-16T12:40:25.560Z,1012.206
2017-09-16T12:43:20.757Z,1012.216
2017-09-16T12:46:15.952Z,1012.238
2017-09-16T12:49:11.113Z,1012.245
2017-09-16T12:52:06.200Z,1012.297
2017-09-16T12:55:01.328Z,1012.302
2017-09-16T12:57:56.687Z,1012.315
2017-09-16T13:00:51.826Z,1012.309
2017-09-16T13:03:47.013Z,1012.293
2017-09-16T13:06:42.142Z,1012.282
2017-09-16T13:09:37.274Z,1012.304
2017-09-16T13:12:32.474Z,1012.313
2017-09-16T13:15:27.621Z,1012.292
2017-09-16T13:18:22.712Z,1012.288
2017-09-16T13:21:17.785Z,1012.308
2017-09-16T13:24:12.997Z,1012.345
2017-09-16T13:27:08.102Z,1012.347
2017-09-16T13:30:03.245Z,1012.332
2017-09-16T13:32:58.446Z,1012.300
2017-09-16T13:35:53.531Z,1012.245
2017-09-16T13:38:48.684Z,1012.232
2017-09-16T13:41:43.819Z,1012.311
2017-09-16T13:44:38.998Z,1012.310
2017-09-16T13:47:34.165Z,1012.290
2017-09-16T13:50:29.329Z,1012.273
2017-09-16T13:53:24.440Z,1012.313
2017-09-16T13:56:19.592Z,1012.335
2017-09-16T13:59:14.826Z,1012.358
2017-09-16T14:02:09.875Z,1012.310
2017-09-16T14:05:05.057Z,1012.258
2017-09-16T14:08:00.153Z,1012.211
2017-09-16T14:10:55.413Z,1012.209
2017-09-16T14:13:50.656Z,1012.203
2017-09-16T14:19:41.018Z,1012.188
2017-09-16T14:22:36.270Z,1012.187
2017-09-16T14:25:31.470Z,1012.248
2017-09-16T14:28:26.547Z,1012.257
2017-09-16T14:31:21.663Z,1012.232
2017-09-16T14:34:16.781Z,1012.174
2017-09-16T14:37:11.920Z,1012.156
2017-09-16T14:40:07.096Z,1012.212
2017-09-16T14:43:02.124Z,1012.243
2017-09-16T14:45:57.578Z,1012.253
2017-09-16T14:48:52.599Z,1012.264
2017-09-16T14:51:47.806Z,1012.255
2017-09-16T14:54:42.979Z,1012.215
2017-09-16T14:57:38.215Z,1012.222
2017-09-16T15:00:33.691Z,1012.225
2017-09-16T15:03:28.472Z,1012.242
2017-09-16T15:06:23.641Z,1012.230
2017-09-16T15:09:18.956Z,1012.210
2017-09-16T15:12:14.244Z,1012.239
2017-09-16T15:15:09.362Z,1012.289
2017-09-16T15:18:04.497Z,1012.312
2017-09-16T15:20:59.638Z,1012.328
2017-09-16T15:23:54.897Z,1012.288
2017-09-16T15:26:50.068Z,1012.303
2017-09-16T15:29:45.250Z,1012.302
2017-09-16T15:32:40.340Z,1012.264
2017-09-16T15:35:35.553Z,1012.242
2017-09-16T15:38:30.818Z,1012.235
2017-09-16T15:41:25.851Z,1012.258
2017-09-16T15:44:21.024Z,1012.258
2017-09-16T15:47:16.240Z,1012.261
2017-09-16T15:50:11.411Z,1012.271
2017-09-16T15:53:06.561Z,1012.290
2017-09-16T15:56:01.673Z,1012.278
2017-09-16T15:58:56.698Z,1012.245
2017-09-16T16:01:51.843Z,1012.227
2017-09-16T16:04:46.962Z,1012.223
2017-09-16T16:07:42.164Z,1012.254
2017-09-16T16:10:37.298Z,1012.240
2017-09-16T16:13:32.444Z,1012.254
2017-09-16T16:16:27.534Z,1012.301
2017-09-16T16:19:22.673Z,1012.383
2017-09-16T16:22:17.887Z,1012.446
2017-09-16T16:25:13.103Z,1012.455
2017-09-16T16:28:08.351Z,1012.436
2017-09-16T16:31:03.352Z,1012.436
2017-09-16T16:33:58.469Z,1012.511
2017-09-16T16:36:53.614Z,1012.558
2017-09-16T16:39:48.696Z,1012.564
2017-09-16T16:42:43.842Z,1012.531
2017-09-16T16:45:39.022Z,1012.539
2017-09-16T16:48:34.135Z,1012.522
2017-09-16T16:51:29.421Z,1012.517
2017-09-16T16:54:24.606Z,1012.532
2017-09-16T16:57:19.767Z,1012.552
2017-09-16T17:00:15.176Z,1012.619
2017-09-16T17:03:10.276Z,1012.644
2017-09-16T17:06:05.429Z,1012.675
2017-09-16T17:09:00.553Z,1012.715
2017-09-16T17:11:55.739Z,1012.716
2017-09-16T17:14:50.816Z,1012.724
2017-09-16T17:17:45.986Z,1012.715
2017-09-16T17:20:41.156Z,1012.709
2017-09-16T17:23:36.383Z,1012.709
2017-09-16T17:26:31.447Z,1012.749
2017-09-16T17:29:26.518Z,1012.785
2017-09-16T17:32:21.599Z,1012.829
2017-09-16T17:35:16.695Z,1012.847
2017-09-16T17:41:06.934Z,1012.922
2017-09-16T17:44:02.035Z,1012.952
2017-09-16T17:46:57.133Z,1012.979
2017-09-16T17:49:52.104Z,1013.026
2017-09-16T17:52:47.176Z,1013.098
2017-09-16T17:58:37.320Z,1013.168
2017-09-16T18:01:32.384Z,1013.198
2017-09-16T18:04:27.453Z,1013.189
2017-09-16T18:07:22.502Z,1013.243
2017-09-16T18:13:12.600Z,1013.289
2017-09-16T18:16:07.626Z,1013.340
2017-09-16T18:19:02.699Z,1013.393
2017-09-16T18:21:57.700Z,1013.405
2017-09-16T18:24:52.719Z,1013.425
2017-09-16T18:27:47.706Z,1013.456
2017-09-16T18:30:42.769Z,1013.479
2017-09-16T18:33:37.786Z,1013.531
2017-09-16T18:36:32.719Z,1013.519
2017-09-16T18:39:27.827Z,1013.498
2017-09-16T18:42:22.948Z,1013.475
2017-09-16T18:45:18.049Z,1013.466
2017-09-16T18:48:13.003Z,1013.474
2017-09-16T18:51:08.064Z,1013.474
2017-09-16T18:54:03.079Z,1013.488
2017-09-16T18:56:58.056Z,1013.492
2017-09-16T18:59:53.061Z,1013.506
2017-09-16T19:02:48.101Z,1013.506
2017-09-16T19:05:43.086Z,1013.493
2017-09-16T19:08:38.125Z,1013.553
2017-09-16T19:11:33.211Z,1013.571
2017-09-16T19:14:28.304Z,1013.578
2017-09-16T19:17:23.222Z,1013.591
2017-09-16T19:20:18.152Z,1013.607
2017-09-16T19:23:13.061Z,1013.616
2017-09-16T19:26:08.049Z,1013.657
2017-09-16T19:29:02.996Z,1013.654
2017-09-16T19:34:53.024Z,1013.667
2017-09-16T19:37:48.443Z,1013.723
2017-09-16T19:40:43.514Z,1013.731
2017-09-16T19:43:38.398Z,1013.747
2017-09-16T19:46:33.267Z,1013.771
2017-09-16T19:49:28.333Z,1013.787
2017-09-16T19:52:23.338Z,1013.813
2017-09-16T19:55:18.303Z,1013.828
2017-09-16T19:58:13.300Z,1013.857
2017-09-16T20:01:08.298Z,1013.868
2017-09-16T20:04:03.226Z,1013.909
2017-09-16T20:06:58.152Z,1013.932
2017-09-16T20:09:53.059Z,1013.928
2017-09-16T20:12:47.873Z,1013.913
2017-09-16T20:15:42.753Z,1013.869
2017-09-16T20:18:37.619Z,1013.917
2017-09-16T20:24:27.442Z,1013.984
2017-09-16T20:27:22.424Z,1013.983
2017-09-16T20:30:17.284Z,1014.001
2017-09-16T20:33:12.150Z,1014.004
2017-09-16T20:36:07.103Z,1013.996
2017-09-16T20:39:01.927Z,1014.025
2017-09-16T20:41:56.868Z,1014.035
2017-09-16T20:44:51.650Z,1014.014
2017-09-16T20:47:46.484Z,1014.009
2017-09-16T20:50:41.405Z,1014.028
2017-09-16T20:56:31.337Z,1014.086
2017-09-16T20:59:26.255Z,1014.110
2017-09-16T21:02:21.171Z,1014.131
2017-09-16T21:05:15.995Z,1014.163
2017-09-16T21:08:10.866Z,1014.136
2017-09-16T21:11:05.814Z,1014.157
2017-09-16T21:14:00.635Z,1014.143
2017-09-16T21:16:55.525Z,1014.129
2017-09-16T21:19:50.393Z,1014.132
2017-09-16T21:22:45.221Z,1014.154
2017-09-16T21:25:39.979Z,1014.149
2017-09-16T21:28:34.821Z,1014.154
2017-09-16T21:31:29.740Z,1014.136
2017-09-16T21:39:34.782Z,1014.223
2017-09-16T21:42:19.192Z,1014.153
2017-09-16T21:45:13.489Z,1014.160
2017-09-16T21:48:08.200Z,1014.200
2017-09-16T21:51:02.946Z,1014.223
2017-09-16T21:53:57.685Z,1014.217
2017-09-16T21:56:52.619Z,1014.223
2017-09-16T21:59:47.331Z,1014.217
2017-09-16T22:02:42.274Z,1014.178
2017-09-16T22:14:22.237Z,1014.327
2017-09-16T22:17:16.185Z,1014.316
2017-09-16T22:20:10.656Z,1014.313
2017-09-16T22:23:05.579Z,1014.309
2017-09-16T22:26:00.177Z,1014.307
2017-09-16T22:28:55.080Z,1014.348
2017-09-16T22:31:49.881Z,1014.386
2017-09-16T22:42:33.245Z,1014.519
2017-09-16T22:45:16.962Z,1014.508
2017-09-16T22:51:05.420Z,1014.531
2017-09-16T22:54:00.053Z,1014.581
2017-09-16T22:57:06.096Z,1014.606
2017-09-16T23:05:35.137Z,1014.615
2017-09-16T23:08:18.852Z,1014.595
2017-09-16T23:11:12.856Z,1014.580
2017-09-16T23:14:07.311Z,1014.587
2017-09-16T23:17:01.914Z,1014.594
2017-09-16T23:22:12.257Z,1014.638
2017-09-16T23:24:56.738Z,1014.603
2017-09-16T23:31:14.226Z,1014.552
2017-09-16T23:33:58.235Z,1014.521
2017-09-16T23:36:52.242Z,1014.534
2017-09-16T23:39:46.774Z,1014.527
2017-09-16T23:42:41.295Z,1014.544
2017-09-16T23:45:36.155Z,1014.545
2017-09-16T23:48:30.672Z,1014.539
2017-09-16T23:51:25.611Z,1014.514
